Time;durP1;ratioP1;P1;durP2;ratioP2;P2;SDS_P1;SDS_P2;PMS_P1;PMS_P2;Temp;Humidity;BMP_temperature;BMP_pressure;BME280_temperature;BME280_humidity;BME280_pressure;Samples;Min_cycle;Max_cycle;Signal;HPM_P1;HPM_P2
2023/12/02 00:00:35;;;;;;;30.88;16.77;;;;;;;-1.21;82.63;100110.50;5028217;28;20109;-80
2023/12/02 00:03:01;;;;;;;26.17;15.52;;;;;;;-1.07;82.97;100113.03;5033065;28;20073;-80
2023/12/02 00:05:28;;;;;;;26.20;15.35;;;;;;;-1.16;82.68;100103.34;5034905;28;20107;-80
2023/12/02 00:07:56;;;;;;;24.63;14.02;;;;;;;-1.03;82.54;100101.66;5033865;28;20088;-81
2023/12/02 00:10:23;;;;;;;23.42;14.90;;;;;;;-1.08;82.97;100106.25;5039952;28;20105;-80
2023/12/02 00:12:49;;;;;;;26.30;14.98;;;;;;;-1.16;82.48;100111.03;5024787;28;20061;-81
2023/12/02 00:15:16;;;;;;;27.70;15.68;;;;;;;-1.15;82.95;100112.69;5026124;28;20069;-81
2023/12/02 00:17:42;;;;;;;28.08;15.50;;;;;;;-1.26;82.65;100102.25;5038111;28;20056;-81
2023/12/02 00:20:10;;;;;;;24.95;15.38;;;;;;;-1.16;82.60;100100.78;5034467;28;20092;-80
2023/12/02 00:22:37;;;;;;;27.27;14.82;;;;;;;-1.26;82.82;100099.69;5031317;28;20049;-81
2023/12/02 00:25:06;;;;;;;24.45;14.07;;;;;;;-1.15;82.55;100099.03;5024087;28;20486;-82
2023/12/02 00:27:32;;;;;;;23.73;14.50;;;;;;;-1.18;82.92;100094.91;5040051;28;20049;-81
2023/12/02 00:29:59;;;;;;;24.92;14.82;;;;;;;-1.13;82.19;100092.88;5044338;28;20045;-81
2023/12/02 00:32:25;;;;;;;24.95;14.98;;;;;;;-1.09;82.47;100094.34;5028924;28;20084;-81
2023/12/02 00:34:51;;;;;;;24.65;14.80;;;;;;;-1.09;82.73;100104.59;5035444;28;20132;-81
2023/12/02 00:37:17;;;;;;;25.02;14.35;;;;;;;-1.10;82.56;100105.53;5033457;28;20530;-81
2023/12/02 00:39:44;;;;;;;21.95;13.52;;;;;;;-1.09;82.13;100099.47;5033236;28;20069;-81
2023/12/02 00:42:15;;;;;;;25.45;14.50;;;;;;;-1.02;81.94;100100.75;5035502;28;20073;-81
2023/12/02 00:44:41;;;;;;;25.10;14.50;;;;;;;-1.11;82.26;100096.19;5038241;28;20137;-81
2023/12/02 00:47:08;;;;;;;23.55;14.82;;;;;;;-1.26;82.27;100096.28;5038926;28;20136;-81
2023/12/02 00:49:35;;;;;;;24.95;14.27;;;;;;;-1.16;81.95;100098.19;5030881;28;20069;-81
2023/12/02 00:52:01;;;;;;;26.13;15.02;;;;;;;-1.19;82.22;100088.13;5033152;28;20076;-81
2023/12/02 00:54:28;;;;;;;24.80;14.48;;;;;;;-1.19;81.83;100095.81;5029733;28;20076;-81
2023/12/02 00:56:54;;;;;;;24.40;14.55;;;;;;;-1.15;81.75;100093.88;5033498;28;20065;-83
2023/12/02 00:59:23;;;;;;;24.75;14.90;;;;;;;-1.16;81.86;100098.19;5028215;28;20045;-82
2023/12/02 01:01:50;;;;;;;23.73;13.65;;;;;;;-1.31;82.36;100099.13;5034202;28;20061;-82
2023/12/02 01:04:17;;;;;;;25.45;15.05;;;;;;;-1.16;81.97;100095.63;5032200;28;20050;-80
2023/12/02 01:06:43;;;;;;;25.92;14.52;;;;;;;-1.17;81.98;100101.69;5033425;28;20092;-82
2023/12/02 01:09:10;;;;;;;26.70;14.88;;;;;;;-1.21;82.13;100100.22;5045267;28;20080;-81
2023/12/02 01:11:37;;;;;;;23.38;13.90;;;;;;;-1.27;82.57;100094.63;5031929;28;20065;-81
2023/12/02 01:14:06;;;;;;;24.88;14.40;;;;;;;-1.25;82.18;100098.75;5017770;28;20129;-81
2023/12/02 01:16:34;;;;;;;23.35;13.93;;;;;;;-1.26;82.81;100102.25;5031749;28;20046;-81
2023/12/02 01:19:01;;;;;;;28.13;15.70;;;;;;;-1.29;82.47;100099.03;5016688;28;20061;-81
2023/12/02 01:21:27;;;;;;;26.60;14.88;;;;;;;-1.09;82.82;100103.78;5026495;28;20050;-81
2023/12/02 01:23:54;;;;;;;25.02;14.45;;;;;;;-1.22;82.39;100101.16;5041937;28;20085;-82
2023/12/02 01:26:20;;;;;;;24.50;14.32;;;;;;;-1.36;82.94;100106.28;5026519;28;20133;-81
2023/12/02 01:28:47;;;;;;;27.08;14.80;;;;;;;-1.29;82.75;100107.56;5029071;28;20041;-82
2023/12/02 01:31:14;;;;;;;24.30;14.07;;;;;;;-1.30;82.75;100116.19;5024762;28;20072;-81
2023/12/02 01:33:42;;;;;;;24.65;14.50;;;;;;;-1.45;82.96;100117.13;5039052;28;20483;-81
2023/12/02 01:36:12;;;;;;;25.38;14.68;;;;;;;-1.28;83.73;100124.63;5045193;28;20049;-80
2023/12/02 01:38:38;;;;;;;27.23;15.05;;;;;;;-1.34;83.35;100133.50;5044420;28;20056;-80
2023/12/02 01:41:05;;;;;;;24.58;14.02;;;;;;;-1.35;84.04;100131.84;5035624;28;20061;-81
2023/12/02 01:43:32;;;;;;;24.65;14.40;;;;;;;-1.25;83.51;100126.16;5025356;28;20073;-82
2023/12/02 01:45:58;;;;;;;25.23;14.07;;;;;;;-1.35;84.31;100138.72;5042354;28;20056;-80
2023/12/02 01:48:29;;;;;;;26.85;14.20;;;;;;;-1.29;83.75;100133.22;5044591;28;20049;-81
2023/12/02 01:50:58;;;;;;;25.80;14.57;;;;;;;-1.21;83.47;100130.22;5043945;28;20064;-80
2023/12/02 01:53:24;;;;;;;25.00;14.98;;;;;;;-1.24;83.36;100138.09;5026017;28;20077;-81
2023/12/02 01:55:51;;;;;;;24.65;14.43;;;;;;;-1.24;83.33;100123.50;5027866;28;20131;-81
2023/12/02 01:58:18;;;;;;;26.23;14.85;;;;;;;-1.36;83.38;100134.50;5025003;28;20076;-81
2023/12/02 02:00:45;;;;;;;26.60;14.23;;;;;;;-1.34;83.33;100145.50;5027266;28;20076;-80
2023/12/02 02:03:11;;;;;;;22.40;13.15;;;;;;;-1.33;83.87;100142.03;5029513;28;20189;-81
2023/12/02 02:05:38;;;;;;;23.25;14.07;;;;;;;-1.44;83.83;100144.44;5028205;28;20092;-79
2023/12/02 02:08:06;;;;;;;23.45;13.45;;;;;;;-1.38;83.23;100149.19;5022620;28;20078;-81
2023/12/02 02:10:33;;;;;;;23.60;13.50;;;;;;;-1.35;83.64;100154.97;5039499;28;20049;-81
2023/12/02 02:13:00;;;;;;;24.52;13.85;;;;;;;-1.22;83.65;100152.47;5044707;28;20054;-82
2023/12/02 02:15:26;;;;;;;28.25;13.77;;;;;;;-1.28;83.17;100152.84;5035323;28;20088;-80
2023/12/02 02:17:53;;;;;;;26.50;13.73;;;;;;;-1.35;83.36;100142.13;5028547;28;20049;-81
2023/12/02 02:20:20;;;;;;;29.02;13.85;;;;;;;-1.16;83.18;100152.13;5028257;28;20069;-81
2023/12/02 02:22:48;;;;;;;20.70;12.35;;;;;;;-1.26;82.81;100145.88;5045065;28;20480;-80
2023/12/02 02:25:15;;;;;;;23.42;13.43;;;;;;;-1.30;83.09;100141.03;5029575;28;20077;-82
2023/12/02 02:27:41;;;;;;;23.95;13.20;;;;;;;-1.19;83.26;100147.16;5031613;28;20532;-82
2023/12/02 02:30:08;;;;;;;22.95;13.23;;;;;;;-1.03;82.77;100152.19;5034914;28;20135;-81
2023/12/02 02:32:35;;;;;;;22.08;12.77;;;;;;;-1.05;83.34;100143.75;5039727;28;20077;-81
2023/12/02 02:35:02;;;;;;;24.85;13.73;;;;;;;-1.01;83.39;100148.63;5022935;28;20551;-79
2023/12/02 02:37:28;;;;;;;20.10;12.75;;;;;;;-1.02;83.08;100146.16;5038755;28;20049;-79
2023/12/02 02:39:56;;;;;;;26.00;14.05;;;;;;;-1.09;83.10;100145.69;5029549;28;20074;-79
2023/12/02 02:42:23;;;;;;;21.05;12.85;;;;;;;-1.10;82.52;100144.03;5015158;28;20077;-79
2023/12/02 02:44:49;;;;;;;23.98;13.68;;;;;;;-1.19;82.33;100146.34;5023383;28;20084;-80
2023/12/02 02:47:16;;;;;;;22.27;13.30;;;;;;;-1.06;82.66;100149.81;5028217;28;20099;-80
2023/12/02 02:49:43;;;;;;;24.08;13.43;;;;;;;-1.03;82.85;100142.75;5038134;28;20496;-80
2023/12/02 02:52:10;;;;;;;22.50;13.23;;;;;;;-0.87;82.74;100150.31;5033270;28;20085;-80
2023/12/02 02:54:36;;;;;;;23.02;12.68;;;;;;;-0.86;82.94;100146.00;5029516;28;20133;-80
2023/12/02 02:57:06;;;;;;;24.80;13.23;;;;;;;-0.82;82.67;100150.03;5040607;28;20103;-80
2023/12/02 02:59:32;;;;;;;22.70;13.55;;;;;;;-0.93;82.87;100142.16;5030343;28;20449;-79
2023/12/02 03:01:59;;;;;;;21.40;13.27;;;;;;;-0.82;82.86;100147.47;5029222;28;20486;-79
2023/12/02 03:04:25;;;;;;;22.60;13.25;;;;;;;-0.85;82.59;100142.50;5038881;28;20113;-78
2023/12/02 03:06:52;;;;;;;22.40;12.32;;;;;;;-1.03;83.22;100154.75;5023135;28;20053;-78
2023/12/02 03:09:19;;;;;;;22.73;13.63;;;;;;;-0.85;82.96;100158.75;5021643;28;20042;-78
2023/12/02 03:11:48;;;;;;;23.23;12.85;;;;;;;-0.77;83.47;100171.13;5036765;28;20073;-78
2023/12/02 03:14:16;;;;;;;21.67;12.45;;;;;;;-0.80;83.87;100167.00;5016467;28;20080;-79
2023/12/02 03:16:43;;;;;;;22.75;12.68;;;;;;;-0.73;83.58;100170.00;5027089;28;20084;-78
2023/12/02 03:19:09;;;;;;;21.30;12.50;;;;;;;-0.78;83.36;100169.47;5032222;28;20128;-78
2023/12/02 03:21:36;;;;;;;21.08;13.32;;;;;;;-0.89;83.23;100156.47;5036222;28;20459;-78
2023/12/02 03:24:03;;;;;;;23.73;13.15;;;;;;;-0.89;82.88;100156.47;5034176;28;20085;-78
2023/12/02 03:26:29;;;;;;;19.83;11.95;;;;;;;-0.83;83.34;100166.38;5035923;28;20050;-78
2023/12/02 03:28:56;;;;;;;20.10;12.75;;;;;;;-0.86;83.47;100167.38;5027466;28;20092;-78
2023/12/02 03:31:24;;;;;;;21.05;12.57;;;;;;;-0.82;83.68;100173.16;5029300;28;20149;-79
2023/12/02 03:33:51;;;;;;;21.55;13.13;;;;;;;-0.89;83.98;100167.56;5035971;28;20141;-78
2023/12/02 03:36:17;;;;;;;21.73;13.55;;;;;;;-0.85;83.98;100170.78;5036419;28;20081;-79
2023/12/02 03:38:44;;;;;;;25.88;13.50;;;;;;;-0.93;83.64;100160.13;5028640;28;20077;-77
2023/12/02 03:41:10;;;;;;;22.77;13.35;;;;;;;-0.89;83.86;100161.59;5033952;28;20054;-78
2023/12/02 03:43:37;;;;;;;22.38;13.55;;;;;;;-0.82;83.78;100163.69;5027512;28;20522;-78
2023/12/02 03:46:04;;;;;;;21.38;13.25;;;;;;;-0.99;82.60;100151.09;5027673;28;20078;-78
2023/12/02 03:48:32;;;;;;;23.70;13.25;;;;;;;-0.94;82.71;100153.34;5032040;28;20088;-78
2023/12/02 03:50:59;;;;;;;22.60;13.13;;;;;;;-1.05;82.59;100160.00;5022605;28;20057;-78
2023/12/02 03:53:30;;;;;;;21.73;12.70;;;;;;;-0.97;82.24;100154.41;5040249;28;20112;-79
2023/12/02 03:55:57;;;;;;;18.75;11.13;;;;;;;-1.03;82.27;100160.72;5040494;28;20053;-79
2023/12/02 03:58:23;;;;;;;20.40;12.38;;;;;;;-1.05;82.46;100166.88;5033328;28;20073;-79
2023/12/02 04:00:50;;;;;;;20.33;12.02;;;;;;;-1.07;82.40;100168.72;5036780;28;20260;-79
2023/12/02 04:03:16;;;;;;;19.67;12.35;;;;;;;-1.05;82.60;100172.84;5030865;28;20370;-79
2023/12/02 04:05:45;;;;;;;20.02;12.00;;;;;;;-1.18;82.25;100174.50;5037899;28;20057;-78
2023/12/02 04:08:11;;;;;;;21.55;12.30;;;;;;;-1.04;82.04;100169.34;5030570;28;20141;-79
2023/12/02 04:10:37;;;;;;;22.10;12.90;;;;;;;-0.97;82.05;100179.25;5041894;28;20125;-79
2023/12/02 04:13:05;;;;;;;18.80;11.93;;;;;;;-0.98;82.16;100173.28;5033937;28;20137;-80
2023/12/02 04:15:32;;;;;;;18.25;11.32;;;;;;;-1.06;81.68;100176.31;5030568;28;20056;-79
2023/12/02 04:17:58;;;;;;;18.73;11.60;;;;;;;-1.03;82.12;100178.69;5028800;28;20069;-79
2023/12/02 04:20:25;;;;;;;20.10;12.27;;;;;;;-1.11;81.73;100178.34;5024642;28;20061;-79
2023/12/02 04:22:53;;;;;;;20.33;11.77;;;;;;;-0.93;82.12;100180.69;5037021;28;20109;-78
2023/12/02 04:25:20;;;;;;;20.73;11.75;;;;;;;-1.07;82.18;100177.25;5020672;28;20081;-79
2023/12/02 04:27:47;;;;;;;18.35;11.30;;;;;;;-1.14;82.11;100181.09;5026058;28;20107;-79
2023/12/02 04:30:13;;;;;;;18.30;10.70;;;;;;;-1.08;82.30;100185.03;5032801;28;20067;-79
2023/12/02 04:32:40;;;;;;;18.27;11.52;;;;;;;-1.01;82.11;100189.72;5041924;28;20109;-79
2023/12/02 04:35:08;;;;;;;20.48;12.25;;;;;;;-0.93;82.18;100190.97;5041830;28;20096;-79
2023/12/02 04:37:35;;;;;;;19.67;12.63;;;;;;;-0.98;82.01;100203.28;5041394;28;20109;-79
2023/12/02 04:40:10;;;;;;;21.88;13.13;;;;;;;-0.86;82.55;100208.47;5040029;28;20060;-79
2023/12/02 04:42:37;;;;;;;20.13;13.18;;;;;;;-0.78;82.69;100215.72;5038255;28;20055;-79
2023/12/02 04:45:05;;;;;;;24.60;12.88;;;;;;;-0.86;82.80;100213.59;5039273;28;20136;-78
2023/12/02 04:47:32;;;;;;;20.58;13.07;;;;;;;-0.80;82.95;100220.13;5040458;28;20128;-79
2023/12/02 04:49:58;;;;;;;22.48;13.77;;;;;;;-0.77;83.29;100217.38;5040205;28;20406;-78
2023/12/02 04:52:25;;;;;;;22.48;13.40;;;;;;;-0.75;83.26;100221.50;5027456;28;20515;-78
2023/12/02 04:54:51;;;;;;;26.02;13.63;;;;;;;-0.80;82.84;100223.50;5029175;28;20554;-79
2023/12/02 04:57:19;;;;;;;22.35;13.82;;;;;;;-0.87;83.25;100226.53;5029357;28;20116;-78
2023/12/02 04:59:46;;;;;;;21.83;13.48;;;;;;;-0.76;83.21;100221.59;5025775;28;20081;-80
2023/12/02 05:02:13;;;;;;;25.42;14.18;;;;;;;-0.71;83.08;100232.41;5026560;28;20105;-78
2023/12/02 05:04:40;;;;;;;21.20;13.23;;;;;;;-0.76;83.39;100234.44;5032141;28;20089;-78
2023/12/02 05:07:07;;;;;;;24.10;14.93;;;;;;;-0.94;83.12;100231.22;5027989;28;20054;-78
2023/12/02 05:09:34;;;;;;;26.10;15.07;;;;;;;-0.89;83.03;100241.22;5033423;28;20050;-79
2023/12/02 05:12:00;;;;;;;24.58;14.68;;;;;;;-0.79;83.43;100243.16;5027107;28;20088;-78
2023/12/02 05:14:28;;;;;;;24.95;14.07;;;;;;;-0.80;83.59;100235.53;5028225;28;20111;-78
2023/12/02 05:16:55;;;;;;;25.20;14.73;;;;;;;-0.81;83.36;100252.69;5025958;28;20125;-78
2023/12/02 05:19:22;;;;;;;23.30;14.25;;;;;;;-0.81;83.67;100244.97;5028902;28;20534;-78
2023/12/02 05:21:48;;;;;;;24.00;13.85;;;;;;;-0.88;83.41;100250.59;5028340;28;20057;-79
2023/12/02 05:24:15;;;;;;;24.05;13.63;;;;;;;-0.89;83.63;100251.50;5034289;28;20133;-78
2023/12/02 05:26:42;;;;;;;24.92;15.13;;;;;;;-0.89;83.96;100264.34;5021691;28;20050;-78
2023/12/02 05:29:08;;;;;;;22.38;13.52;;;;;;;-0.96;83.78;100260.50;5032377;28;20514;-77
2023/12/02 05:31:38;;;;;;;23.88;14.25;;;;;;;-0.89;83.86;100269.47;5025523;28;20494;-79
2023/12/02 05:34:04;;;;;;;22.90;13.95;;;;;;;-0.91;83.37;100273.88;5027508;28;20136;-78
2023/12/02 05:36:31;;;;;;;20.55;12.85;;;;;;;-1.01;83.38;100271.06;5017547;28;20134;-77
2023/12/02 05:38:58;;;;;;;21.38;12.82;;;;;;;-0.99;83.03;100268.41;5029504;28;20376;-77
2023/12/02 05:41:24;;;;;;;24.58;14.07;;;;;;;-0.91;83.24;100266.19;5032429;28;20132;-77
2023/12/02 05:43:51;;;;;;;21.45;13.30;;;;;;;-0.97;82.86;100257.13;5033004;28;20085;-77
2023/12/02 05:46:18;;;;;;;22.45;13.48;;;;;;;-0.97;82.66;100259.69;5038393;28;20121;-79
2023/12/02 05:48:46;;;;;;;21.80;13.38;;;;;;;-0.81;82.69;100254.44;5039032;28;20077;-79
2023/12/02 05:51:13;;;;;;;23.50;14.98;;;;;;;-0.80;82.50;100263.78;5022027;28;20069;-78
2023/12/02 05:53:40;;;;;;;26.05;14.35;;;;;;;-0.83;82.17;100259.66;5032880;28;20057;-79
2023/12/02 05:56:08;;;;;;;21.33;12.73;;;;;;;-0.98;82.14;100252.91;5031882;28;20069;-79
2023/12/02 05:58:35;;;;;;;23.65;14.52;;;;;;;-0.94;81.97;100250.94;5035483;28;20078;-78
2023/12/02 06:01:02;;;;;;;23.77;14.25;;;;;;;-1.05;81.63;100254.19;5036433;28;20137;-78
2023/12/02 06:03:29;;;;;;;22.05;13.82;;;;;;;-1.17;82.23;100260.84;5035838;28;20061;-80
2023/12/02 06:05:56;;;;;;;23.50;13.48;;;;;;;-1.04;82.17;100261.78;5025988;28;20046;-80
2023/12/02 06:08:23;;;;;;;22.15;13.40;;;;;;;-1.02;82.26;100259.97;5024696;28;20073;-79
2023/12/02 06:10:50;;;;;;;24.67;13.85;;;;;;;-0.99;81.80;100268.41;5036591;28;20077;-80
2023/12/02 06:13:16;;;;;;;23.33;13.88;;;;;;;-1.08;82.08;100260.31;5036325;28;20080;-79
2023/12/02 06:15:43;;;;;;;22.00;13.60;;;;;;;-1.11;82.45;100268.22;5044031;28;20088;-80
2023/12/02 06:18:09;;;;;;;25.35;14.23;;;;;;;-1.09;82.36;100281.78;5034382;28;20468;-79
2023/12/02 06:20:36;;;;;;;22.75;13.48;;;;;;;-1.17;81.71;100276.25;5029823;28;20106;-79
2023/12/02 06:23:04;;;;;;;22.80;13.95;;;;;;;-1.10;82.22;100281.88;5036580;28;20133;-80
2023/12/02 06:25:31;;;;;;;21.38;13.38;;;;;;;-1.07;81.72;100287.66;5045645;28;20073;-79
2023/12/02 06:27:57;;;;;;;22.30;13.50;;;;;;;-1.13;81.56;100275.16;5044786;28;20088;-80
2023/12/02 06:30:24;;;;;;;29.30;15.55;;;;;;;-1.02;82.41;100282.25;5032149;28;20054;-80
2023/12/02 06:32:51;;;;;;;26.30;14.68;;;;;;;-1.16;82.59;100295.88;5022572;28;20125;-79
2023/12/02 06:35:18;;;;;;;24.88;14.18;;;;;;;-1.19;82.23;100297.81;5030218;28;20054;-80
2023/12/02 06:37:45;;;;;;;24.90;14.30;;;;;;;-1.11;82.89;100306.72;5037095;28;20045;-79
2023/12/02 06:40:13;;;;;;;28.73;16.52;;;;;;;-1.03;82.69;100304.53;5035444;28;20068;-78
2023/12/02 06:42:41;;;;;;;25.25;15.25;;;;;;;-1.07;83.16;100310.75;5023552;28;20057;-79
2023/12/02 06:45:16;;;;;;;28.27;14.68;;;;;;;-1.19;82.78;100311.47;5035918;28;20073;-81
2023/12/02 06:47:51;;;;;;;26.45;15.30;;;;;;;-1.09;82.76;100320.28;5026121;28;20420;-79
2023/12/02 06:50:19;;;;;;;27.73;15.82;;;;;;;-1.09;82.94;100301.50;5042401;28;20057;-79
2023/12/02 06:52:56;;;;;;;30.60;15.73;;;;;;;-1.00;82.47;100316.38;5031460;28;20548;-80
2023/12/02 06:55:32;;;;;;;29.38;16.60;;;;;;;-1.06;82.36;100320.13;5030412;28;20072;-80
2023/12/02 06:57:59;;;;;;;30.92;16.30;;;;;;;-1.19;82.10;100308.91;5027579;28;20072;-80
2023/12/02 07:00:26;;;;;;;27.90;15.13;;;;;;;-1.23;81.69;100324.56;5033232;28;20045;-78
2023/12/02 07:02:53;;;;;;;28.25;15.38;;;;;;;-1.11;82.19;100332.41;5026343;28;20076;-80
2023/12/02 07:05:19;;;;;;;30.40;17.08;;;;;;;-1.17;82.09;100332.75;5044016;28;20133;-80
2023/12/02 07:07:46;;;;;;;27.80;15.57;;;;;;;-1.03;82.06;100340.50;5031286;28;20053;-79
2023/12/02 07:10:13;;;;;;;32.75;16.02;;;;;;;-1.01;82.04;100338.66;5042015;28;20046;-79
2023/12/02 07:12:41;;;;;;;27.50;15.50;;;;;;;-1.05;81.60;100357.72;5042947;28;20482;-78
2023/12/02 07:15:09;;;;;;;31.92;16.80;;;;;;;-1.13;82.21;100354.78;5044806;22;20049;-85
2023/12/02 07:17:36;;;;;;;30.48;15.40;;;;;;;-1.04;82.07;100359.38;5024460;28;20050;-82
2023/12/02 07:20:02;;;;;;;28.00;16.25;;;;;;;-1.02;81.60;100365.25;5011605;28;20046;-81
2023/12/02 07:22:29;;;;;;;28.77;16.58;;;;;;;-1.04;81.90;100356.81;5015498;28;20046;-81
2023/12/02 07:24:56;;;;;;;27.50;15.43;;;;;;;-1.15;81.35;100377.13;5020658;28;20054;-82
2023/12/02 07:27:23;;;;;;;26.02;15.18;;;;;;;-1.07;81.66;100379.28;5012471;28;20104;-83
2023/12/02 07:29:51;;;;;;;27.63;15.57;;;;;;;-1.08;82.27;100387.88;5013261;28;20050;-83
2023/12/02 07:32:17;;;;;;;30.23;15.90;;;;;;;-1.02;81.59;100383.22;5017149;28;20108;-84
2023/12/02 07:51:53;;;;;;;29.05;15.32;;;;;;;-1.20;81.81;100368.88;4994584;28;20052;-78
2023/12/02 07:54:32;;;;;;;25.88;14.25;;;;;;;-1.21;80.99;100381.78;5006560;28;20049;-77
2023/12/02 07:57:02;;;;;;;24.58;13.93;;;;;;;-1.16;80.92;100385.75;5006225;28;20050;-77
2023/12/02 08:00:05;;;;;;;;;;;;;;;;;;;;;
2023/12/02 08:02:42;;;;;;;26.00;13.65;;;;;;;-1.02;80.93;100380.66;5000009;28;20050;-77
2023/12/02 08:05:20;;;;;;;26.45;13.98;;;;;;;-1.04;80.72;100403.03;4993202;28;20050;-77
2023/12/02 08:08:05;;;;;;;26.25;14.25;;;;;;;-1.09;80.78;100378.53;4997500;28;20049;-78
2023/12/02 08:10:47;;;;;;;27.70;14.77;;;;;;;-0.97;81.18;100394.97;4995358;28;20153;-78
2023/12/02 08:13:33;;;;;;;23.58;13.02;;;;;;;-0.85;81.02;100410.50;4997746;28;20042;-77
2023/12/02 08:19:14;;;;;;;26.33;14.32;;;;;;;-0.80;81.12;100402.50;4968812;28;20137;-78
2023/12/02 08:25:05;;;;;;;27.40;14.65;;;;;;;-0.75;80.84;100415.91;4999178;28;20504;-77
2023/12/02 08:27:32;;;;;;;27.40;14.95;;;;;;;-0.74;81.26;100422.72;4997254;28;20060;-77
2023/12/02 08:29:58;;;;;;;28.92;16.10;;;;;;;-0.67;81.53;100424.84;4996807;28;20054;-78
2023/12/02 08:32:25;;;;;;;33.13;15.90;;;;;;;-0.61;81.71;100438.25;4996519;28;20042;-78
2023/12/02 08:34:52;;;;;;;29.92;15.00;;;;;;;-0.53;81.74;100441.22;4995255;28;20487;-78
2023/12/02 08:37:18;;;;;;;29.80;15.30;;;;;;;-0.51;81.48;100445.34;4993161;28;20072;-78
2023/12/02 08:39:45;;;;;;;27.17;14.25;;;;;;;-0.55;81.41;100445.59;4997409;28;20472;-78
2023/12/02 08:42:14;;;;;;;26.15;14.75;;;;;;;-0.46;81.97;100448.44;4999056;28;20053;-78
2023/12/02 08:44:44;;;;;;;22.92;13.40;;;;;;;-0.51;82.00;100462.50;5007517;28;20137;-78
2023/12/02 08:47:10;;;;;;;22.98;13.23;;;;;;;-0.53;82.14;100467.72;5003170;28;20126;-78
2023/12/02 08:49:37;;;;;;;24.45;13.68;;;;;;;-0.61;82.00;100462.22;5003417;28;20137;-78
2023/12/02 08:52:05;;;;;;;24.27;13.30;;;;;;;-0.58;81.53;100463.78;4998554;28;20133;-78
2023/12/02 08:54:32;;;;;;;24.95;13.23;;;;;;;-0.60;81.08;100461.28;4996076;28;20101;-78
2023/12/02 08:56:58;;;;;;;23.30;12.32;;;;;;;-0.42;80.89;100470.47;5005313;28;20137;-79
2023/12/02 08:59:26;;;;;;;22.38;12.73;;;;;;;-0.61;80.82;100464.78;4998465;28;20046;-79
2023/12/02 09:01:53;;;;;;;26.27;13.48;;;;;;;-0.64;80.61;100475.22;5002124;28;20116;-78
2023/12/02 09:04:19;;;;;;;23.10;12.80;;;;;;;-0.51;80.74;100476.19;5000627;28;20077;-78
2023/12/02 09:06:46;;;;;;;25.17;13.27;;;;;;;-0.69;79.94;100477.25;5001893;28;20129;-78
2023/12/02 09:09:13;;;;;;;24.50;13.55;;;;;;;-0.59;80.50;100480.94;4999067;28;20050;-78
2023/12/02 09:11:41;;;;;;;27.45;13.80;;;;;;;-0.42;80.57;100479.94;5001834;28;20085;-77
2023/12/02 09:14:08;;;;;;;21.98;13.52;;;;;;;-0.35;80.21;100482.06;5002649;28;20496;-77
2023/12/02 09:16:36;;;;;;;21.20;12.30;;;;;;;-0.34;79.90;100477.75;5001661;28;20138;-78
2023/12/02 09:19:25;;;;;;;25.73;13.85;;;;;;;-0.29;79.66;100482.63;5005088;28;20133;-78
2023/12/02 09:21:52;;;;;;;23.52;14.05;;;;;;;-0.31;79.72;100474.16;4996788;28;20579;-78
2023/12/02 09:24:38;;;;;;;24.17;12.30;;;;;;;-0.41;79.82;100477.28;5003225;28;20120;-78
2023/12/02 09:27:06;;;;;;;25.00;12.75;;;;;;;-0.56;79.73;100469.66;4995152;28;20054;-78
2023/12/02 09:29:34;;;;;;;21.67;12.68;;;;;;;-0.48;80.26;100491.44;4995541;28;20081;-78
2023/12/02 09:32:09;;;;;;;22.63;12.60;;;;;;;-0.40;80.64;100484.06;5003175;28;20053;-78
2023/12/02 09:34:57;;;;;;;22.63;12.55;;;;;;;-0.24;80.51;100496.88;4993916;28;20057;-78
2023/12/02 09:37:54;;;;;;;23.73;13.23;;;;;;;-0.02;80.15;100493.84;4986756;28;20382;-77
2023/12/02 09:40:36;;;;;;;21.30;12.63;;;;;;;-0.04;79.30;100473.38;4998616;28;20061;-78
2023/12/02 09:43:28;;;;;;;20.73;12.20;;;;;;;-0.05;79.38;100484.56;4998696;28;20142;-78
2023/12/02 09:46:10;;;;;;;19.25;11.50;;;;;;;0.06;78.97;100483.91;4998658;28;20340;-78
2023/12/02 09:48:49;;;;;;;22.27;11.90;;;;;;;0.16;79.27;100485.00;5006122;28;20476;-78
2023/12/02 09:51:27;;;;;;;19.83;11.77;;;;;;;0.09;78.41;100476.00;4991514;28;20130;-78
2023/12/02 09:54:04;;;;;;;19.50;11.57;;;;;;;0.08;78.67;100476.91;4994524;28;20137;-78
2023/12/02 09:56:39;;;;;;;18.63;11.45;;;;;;;0.26;78.89;100483.53;4994460;28;20053;-78
2023/12/02 09:59:14;;;;;;;18.73;11.23;;;;;;;0.15;78.26;100490.25;4995252;28;20133;-78
2023/12/02 10:01:43;;;;;;;20.15;11.70;;;;;;;0.28;78.66;100489.41;5002639;28;20046;-78
2023/12/02 10:04:24;;;;;;;20.52;10.63;;;;;;;0.19;78.50;100486.56;4994817;28;20109;-78
2023/12/02 10:06:57;;;;;;;19.02;10.88;;;;;;;0.24;78.52;100487.13;5001589;28;20053;-77
2023/12/02 10:09:53;;;;;;;20.17;12.05;;;;;;;0.26;79.13;100496.41;4987491;28;20564;-78
2023/12/02 10:12:36;;;;;;;17.35;11.05;;;;;;;0.20;78.40;100489.03;4993114;28;20062;-78
2023/12/02 10:15:06;;;;;;;20.33;12.00;;;;;;;0.19;78.49;100489.97;4991107;28;20096;-78
2023/12/02 10:17:40;;;;;;;19.45;11.23;;;;;;;0.18;78.16;100485.75;4993626;28;20129;-78
2023/12/02 10:20:12;;;;;;;17.23;10.40;;;;;;;0.16;78.36;100487.56;4992449;28;20050;-78
2023/12/02 10:22:44;;;;;;;19.95;11.52;;;;;;;0.25;78.16;100486.19;4991424;28;20390;-78
2023/12/02 10:25:19;;;;;;;20.73;12.27;;;;;;;0.27;78.48;100489.50;4993591;28;20499;-78
2023/12/02 10:27:46;;;;;;;18.52;12.32;;;;;;;0.23;77.88;100490.59;4994218;28;20070;-78
2023/12/02 10:30:15;;;;;;;17.05;10.50;;;;;;;0.25;77.44;100486.19;4995896;28;20736;-78
2023/12/02 10:32:58;;;;;;;18.13;11.35;;;;;;;0.14;77.30;100480.88;4993552;28;20047;-78
2023/12/02 10:35:31;;;;;;;15.93;8.70;;;;;;;0.31;77.28;100490.97;4991090;28;20080;-78
2023/12/02 10:38:09;;;;;;;19.42;11.40;;;;;;;0.39;77.46;100493.91;4992929;28;20364;-78
2023/12/02 10:40:36;;;;;;;18.42;11.38;;;;;;;0.38;77.32;100483.69;4989944;28;20137;-78
2023/12/02 10:43:10;;;;;;;17.67;10.93;;;;;;;0.40;77.81;100492.16;4992272;28;20065;-78
2023/12/02 10:45:41;;;;;;;18.48;11.15;;;;;;;0.37;77.46;100494.91;4991894;28;20070;-78
2023/12/02 10:48:11;;;;;;;21.58;11.98;;;;;;;0.41;77.53;100493.81;4995873;28;20125;-78
2023/12/02 10:50:40;;;;;;;19.40;11.75;;;;;;;0.44;77.54;100493.63;4995850;28;20434;-78
2023/12/02 10:53:06;;;;;;;19.20;11.82;;;;;;;0.50;77.11;100488.06;4994244;28;20042;-78
2023/12/02 10:55:36;;;;;;;19.42;12.07;;;;;;;0.39;77.33;100481.03;4992486;28;20126;-78
2023/12/02 10:58:05;;;;;;;23.00;13.27;;;;;;;0.41;78.06;100486.09;4998078;28;20555;-81
2023/12/02 11:00:36;;;;;;;19.58;12.25;;;;;;;0.39;77.51;100487.94;4996618;28;20132;-80
2023/12/02 11:03:10;;;;;;;18.92;11.65;;;;;;;0.31;77.33;100484.06;4994114;28;20045;-80
2023/12/02 11:05:45;;;;;;;18.55;11.10;;;;;;;0.39;77.34;100487.94;4993318;28;20090;-79
2023/12/02 11:08:19;;;;;;;19.88;11.88;;;;;;;0.42;77.77;100474.88;4995460;28;20121;-80
2023/12/02 11:10:48;;;;;;;22.70;13.60;;;;;;;0.36;78.18;100493.25;4992155;28;20137;-78
2023/12/02 11:13:19;;;;;;;27.80;14.32;;;;;;;0.48;78.26;100500.22;4996970;28;20074;-79
2023/12/02 11:16:14;;;;;;;23.38;13.75;;;;;;;0.55;78.73;100496.34;4992053;28;20110;-79
2023/12/02 11:18:54;;;;;;;32.25;15.95;;;;;;;0.64;79.04;100504.31;4991872;28;20080;-79
2023/12/02 11:21:34;;;;;;;26.02;15.00;;;;;;;0.72;79.14;100505.59;4994178;28;20081;-79
2023/12/02 11:24:08;;;;;;;26.23;16.23;;;;;;;0.85;78.49;100507.31;4990766;28;20128;-79
2023/12/02 11:26:42;;;;;;;28.20;15.85;;;;;;;0.89;78.72;100508.78;4994864;28;20039;-79
2023/12/02 11:29:19;;;;;;;24.33;15.63;;;;;;;0.65;78.34;100500.81;5002024;28;20051;-79
2023/12/02 11:32:10;;;;;;;23.30;14.77;;;;;;;0.47;78.63;100507.13;4994842;28;20134;-79
2023/12/02 11:34:50;;;;;;;24.38;13.65;;;;;;;0.56;78.31;100503.13;4981112;28;20141;-79
2023/12/02 11:37:34;;;;;;;24.95;14.68;;;;;;;0.56;78.51;100516.00;4995469;28;20056;-80
2023/12/02 11:40:12;;;;;;;26.40;15.23;;;;;;;0.68;78.51;100506.69;5000317;28;20580;-79
2023/12/02 11:42:46;;;;;;;23.63;14.52;;;;;;;0.71;78.07;100507.34;5000531;28;20482;-81
2023/12/02 11:45:18;;;;;;;25.88;14.10;;;;;;;0.81;77.74;100511.00;4999768;28;20069;-79